Clarks, Texas
Current Conditions -  °F | °C
As of 8:35 AM on Tuesday 27 Jan 2015 (Local Time) from KPKV Reporting Station
Clear Clear  
Wind Chill: 51°   Ceiling: Unl
Heat Index: 51°   Visibility: 10mi
Dew Point: 45°   Wind: 6mph
Humidity: 77%   Direction: 260°W
Pressure: 30.2"   Gusts: NA
Location:  28.5342°N, 96.663°W
Report Text: KPKV 271435Z AUTO 26005KT 10SM CLR 11/07 A3020 RMK AO2 T01080070
Loading
Personal Weather Stations






























Interactive Weather Map New forecast layout! Learn more

10-Day Weather Forecast

Advertisements
Track Severe Weather on mobile